Werte bis 5 Uhr SommerzeitDiagramme Wasenberg: Tagesdaten MonatsdatenCSV-Datei: Wasenberg21.csv

Wetterdaten 2021 Station: Wasenberg
Temperaturen in °C relative Nieder- Global- Wind Wind Wind- Sonnen-
Datum Boden Boden Luft Luft Luft Luft Feuchte schlag strahlung max richtung schein
20 cm 5 cm 20 cm 2 m 2 m max 2 m min % mm W/m2*d m/s m/s ° h

06.05.2021 8,1 7,4 1,2 3,0 3,8 1,9 96 0,1 0 1,7 5,1 --- ---
05.05.2021 8,2 7,9 4,9 5,3 9,9 1,6 90 3,7 4055 3,1 16,3 --- 8,4
04.05.2021 8,5 8,4 8,2 9,1 12,0 4,6 73 8,0 2419 4,8 17,8 --- 7,2
03.05.2021 8,3 8,1 6,9 7,3 13,8 -1,5 64 0,0 5313 1,9 10,0 --- 10,4
02.05.2021 8,9 8,7 6,5 7,0 10,7 0,2 70 0,0 2709 2,1 8,9 --- 10,0
01.05.2021 8,9 9,2 9,1 9,2 13,5 4,2 77 0,0 3629 1,0 5,3 --- 11,4
30.04.2021 8,8 8,9 7,5 7,4 12,8 3,7 82 0,0 3546 1,3 5,1 --- 9,9
29.04.2021 8,9 9,7 10,2 10,2 16,2 3,8 80 7,3 5354 3,3 13,0 --- 10,7
28.04.2021 8,0 8,3 9,9 10,7 20,2 -1,1 60 1,2 5917 1,2 9,5 --- 9,5
27.04.2021 7,6 7,5 7,0 7,3 15,1 -0,3 55 0,0 6684 1,1 5,1 --- 10,1
26.04.2021 7,5 7,2 4,8 5,4 13,1 -2,9 62 0,0 6810 1,1 7,0 --- 10,2
25.04.2021 7,8 7,6 4,9 4,8 10,5 -0,3 76 0,0 6575 2,1 8,1 --- 10,8
24.04.2021 7,8 7,6 5,5 5,8 13,1 -1,8 79 0,0 6091 1,5 8,3 --- 11,0
23.04.2021 7,9 7,8 5,2 5,4 13,2 -1,8 79 0,0 6240 1,4 5,9 --- 11,1
22.04.2021 8,2 8,2 5,9 6,0 12,0 -0,1 72 0,0 6349 2,2 9,1 --- 10,0
21.04.2021 8,2 8,8 9,8 10,1 17,5 3,1 82 5,9 3860 1,6 7,3 --- 9,7
20.04.2021 7,3 7,7 8,5 8,6 18,8 -0,6 80 0,0 6102 0,7 7,6 --- 9,8
19.04.2021 7,0 7,6 7,3 7,5 13,6 2,5 91 0,2 3578 1,2 6,1 --- 10,5
18.04.2021 6,2 6,6 7,5 7,3 13,2 4,2 93 11,9 2730 1,0 5,5 --- 6,8
17.04.2021 5,8 5,6 5,0 5,0 9,0 -0,5 75 0,0 2281 1,5 6,7 --- 8,4
16.04.2021 5,7 5,4 4,8 4,9 9,4 0,1 73 0,0 2657 1,8 8,5 --- 8,9
15.04.2021 5,5 4,8 1,8 1,9 9,2 -4,1 85 0,1 3980 1,4 8,2 --- 9,5
14.04.2021 5,7 5,1 1,8 1,9 9,0 -3,7 84 0,0 4973 1,6 9,0 --- 8,2
13.04.2021 6,0 5,3 1,9 2,1 9,7 -3,9 81 0,1 3354 1,6 8,3 --- 9,0
12.04.2021 6,6 6,2 3,3 3,2 9,7 -1,5 86 0,9 3889 1,7 10,1 --- 9,3
11.04.2021 6,8 7,1 7,2 7,3 14,0 1,7 95 9,2 1492 2,1 8,6 --- 3,5
10.04.2021 6,2 6,5 7,2 7,1 9,0 4,7 96 13,6 1685 1,2 5,9 --- 5,9
09.04.2021 5,2 5,1 5,7 6,3 14,7 -1,8 67 0,1 4994 2,7 8,5 --- 9,6
08.04.2021 5,0 4,3 2,3 2,5 6,9 -0,7 75 1,1 2917 2,5 7,8 --- 9,8
07.04.2021 5,3 4,3 0,9 0,8 5,7 -1,8 93 1,8 1964 3,1 11,9 --- 6,6
06.04.2021 5,7 4,6 0,9 0,7 6,3 -6,4 88 3,5 4072 3,1 13,0 --- 8,6
05.04.2021 6,9 5,9 2,0 2,2 5,2 -2,0 86 5,3 2143 3,6 14,4 --- 5,0
04.04.2021 7,2 7,0 4,6 4,6 10,8 -0,3 79 0,0 4171 1,2 5,6 --- 9,7
03.04.2021 7,4 7,0 5,2 5,4 11,6 0,5 76 0,4 4729 2,5 8,9 --- 9,2
02.04.2021 8,1 7,9 6,5 6,4 12,3 2,3 76 0,0 3670 2,8 10,3 --- 7,3
01.04.2021 8,1 8,8 11,5 11,9 24,1 4,1 70 0,0 4954 2,0 10,1 --- 9,2
31.03.2021 7,6 8,1 10,7 11,8 24,0 0,4 69 0,0 5090 1,1 5,8 --- 8,8
30.03.2021 7,1 7,6 9,9 11,0 24,1 0,1 67 0,0 5135 0,9 5,1 --- 8,7
29.03.2021 6,5 7,3 11,6 12,4 20,1 4,7 56 0,0 5218 2,4 9,1 --- 9,5
28.03.2021 5,7 5,5 6,7 7,2 14,0 -1,2 72 0,0 3530 2,6 11,0 --- 8,9
27.03.2021 6,5 6,3 5,5 6,0 11,0 1,4 81 8,5 2294 3,1 13,0 --- 6,6
26.03.2021 6,1 6,9 10,1 10,2 16,2 3,9 72 0,0 4541 2,5 8,7 --- 8,8
25.03.2021 5,2 5,4 6,7 7,2 16,0 -0,9 81 0,0 3562 2,5 5,6 --- 8,6
24.03.2021 4,7 4,6 5,0 5,5 14,3 -2,7 80 0,0 4839 2,1 6,7 --- 8,8
23.03.2021 4,8 4,9 4,8 5,0 9,6 0,4 85 0,0 1913 1,4 5,1 --- 6,6
22.03.2021 4,4 4,3 4,2 4,2 7,3 2,0 90 0,3 1799 2,3 7,5 --- 6,4
21.03.2021 4,2 4,0 4,6 4,7 8,5 2,3 76 0,0 2050 3,3 10,5 --- 7,8
20.03.2021 3,7 3,1 1,6 1,2 5,9 -3,4 61 0,0 4387 1,4 5,1 --- 8,7
19.03.2021 3,9 3,3 2,0 1,9 6,6 -0,8 84 0,2 3610 2,7 10,5 --- 8,3
18.03.2021 3,8 3,0 0,6 0,5 6,2 -4,4 93 1,0 2659 0,9 5,1 --- 7,4
17.03.2021 4,5 3,8 1,3 1,5 4,4 -2,7 90 0,1 1546 1,6 6,0 --- 6,0
16.03.2021 4,7 4,4 3,8 3,9 9,0 0,6 85 0,6 2496 2,3 10,5 --- 7,1
15.03.2021 4,6 4,4 4,1 4,1 9,0 1,5 92 3,2 2393 2,7 13,5 --- 6,6
14.03.2021 4,5 4,2 3,7 3,8 7,3 1,7 92 1,9 2169 3,4 9,6 --- 6,8
13.03.2021 4,7 4,6 4,7 5,0 7,9 2,2 92 9,6 1417 5,3 17,2 --- 4,6
12.03.2021 4,8 4,8 5,7 6,1 9,5 2,5 78 4,1 2617 5,0 14,6 --- 7,1
11.03.2021 4,4 4,8 7,2 7,7 12,7 4,9 83 4,2 1868 5,3 14,2 --- 5,5
10.03.2021 3,6 3,7 4,8 4,8 8,5 1,1 86 1,3 2178 1,9 6,7 --- 6,4
09.03.2021 3,1 2,7 1,8 1,7 4,6 -1,3 97 0,8 1293 1,1 5,5 --- 5,4
08.03.2021 2,9 2,2 0,5 0,5 6,2 -2,4 94 0,0 1662 2,2 5,1 --- 5,3
07.03.2021 3,0 1,8 -1,0 -0,7 7,1 -6,6 86 0,0 4074 0,9 6,6 --- 8,8
06.03.2021 3,6 2,3 -1,1 -0,8 6,2 -6,4 82 0,0 4000 0,5 5,0 --- 8,7
05.03.2021 4,7 4,0 1,7 1,8 5,5 -2,9 85 0,5 2616 2,4 10,0 --- 8,0
04.03.2021 4,9 4,9 4,8 4,9 9,1 1,8 99 7,3 986 1,5 8,6 --- 3,3
03.03.2021 4,6 4,3 4,0 4,8 15,0 -2,4 87 0,1 2767 2,0 5,2 --- 7,7
02.03.2021 4,6 4,4 3,7 3,9 16,1 -1,2 89 0,2 3242 0,7 5,1 --- 7,6
01.03.2021 4,6 4,3 3,2 3,4 9,0 -0,3 97 0,0 2179 1,9 6,1 --- 6,5
28.02.2021 4,5 4,3 4,4 4,5 10,3 -0,4 91 0,0 3586 1,7 6,3 --- 8,2
27.02.2021 4,6 4,2 2,7 2,8 5,9 -0,7 97 0,0 1085 1,5 5,9 --- 4,0
26.02.2021 5,1 5,0 4,1 4,6 6,7 1,8 98 6,0 795 1,3 7,8 --- 2,3
25.02.2021 5,1 5,3 8,0 9,2 18,7 1,7 82 0,0 3035 2,7 6,6 --- 7,7
24.02.2021 4,7 5,2 8,8 10,0 18,5 3,3 86 0,0 2841 1,7 6,3 --- 7,5
23.02.2021 3,9 4,2 8,0 8,9 17,6 1,1 84 0,0 2564 1,5 7,3 --- 6,9
22.02.2021 3,5 3,2 4,0 4,8 14,0 -1,6 89 0,1 2627 1,3 5,1 --- 7,0
21.02.2021 3,4 3,5 6,1 7,9 17,8 0,4 78 0,0 3028 1,8 10,4 --- 7,5
20.02.2021 2,9 3,0 6,0 6,9 16,2 0,2 85 0,0 2562 2,7 6,8 --- 7,1
19.02.2021 2,4 2,7 4,9 5,5 10,2 1,0 88 0,2 2545 2,2 11,6 --- 6,5
18.02.2021 1,5 1,2 3,4 4,1 10,4 -1,4 90 0,1 1324 1,1 9,6 --- 5,3
17.02.2021 1,1 0,5 3,9 5,3 9,8 0,2 94 3,2 2050 2,5 8,1 --- 5,6
16.02.2021 1,1 0,2 2,2 3,1 8,4 -0,6 94 9,7 1964 1,4 7,2 --- 5,6
15.02.2021 1,1 0,2 -4,0 -2,7 1,2 -9,5 73 1,1 923 1,7 9,1 --- 3,1
14.02.2021 1,2 0,2 -14,0 -11,9 0,1 -21,1 83 4,0 2656 0,8 5,1 --- 6,9
13.02.2021 1,4 0,4 -13,9 -12,0 -2,6 -18,4 89 2,0 2719 1,0 6,2 --- 6,9
12.02.2021 1,6 0,6 -13,0 -11,7 -4,0 -18,8 92 0,0 2718 1,5 7,2 --- 6,9
11.02.2021 1,7 0,7 -8,1 -7,6 -2,6 -16,9 89 2,8 1831 1,2 5,3 --- 5,3
10.02.2021 2,0 0,9 -13,0 -12,7 -6,1 -20,6 93 0,0 2506 1,5 9,3 --- 6,5
09.02.2021 2,3 1,2 -13,4 -13,5 -7,1 -20,8 89 0,0 1927 0,8 5,6 --- 6,0
08.02.2021 2,5 1,3 -7,6 -8,3 -6,6 -10,4 93 0,0 1251 1,6 6,3 --- 5,0
07.02.2021 3,3 2,1 -3,8 -4,0 -0,9 -7,2 99 0,0 348 2,2 8,0 --- ---
06.02.2021 4,1 3,6 1,8 1,7 4,0 -1,3 100 4,1 309 1,7 6,8 --- ---
05.02.2021 4,2 3,7 2,8 3,0 5,4 -0,5 99 5,5 420 1,8 5,3 --- 0,1
04.02.2021 4,7 5,0 5,2 5,8 9,8 0,3 93 1,4 1530 2,3 8,5 --- 4,8
03.02.2021 3,9 4,5 8,2 8,8 10,5 7,0 98 5,9 535 3,5 12,8 --- 1,2
02.02.2021 2,7 2,7 4,6 4,9 8,5 2,3 100 3,2 409 1,9 6,3 --- 0,1
01.02.2021 2,1 1,4 0,9 0,9 2,6 -0,9 99 3,0 491 0,9 5,1 --- 0,2
31.01.2021 2,5 1,3 -1,5 -1,4 2,4 -5,0 92 0,0 2039 0,9 5,0 --- 6,1
30.01.2021 3,3 2,9 1,3 1,5 6,8 -1,3 92 2,0 771 3,0 10,9 --- 2,7
29.01.2021 2,7 2,6 4,3 4,6 9,2 0,7 97 11,9 505 2,5 12,6 --- 1,5
28.01.2021 2,3 1,8 1,5 1,5 2,6 0,7 100 16,8 157 1,4 5,8 --- ---
27.01.2021 2,2 1,2 0,0 0,2 1,2 -1,2 99 0,7 639 2,6 9,3 --- 1,4
26.01.2021 2,3 1,4 0,1 0,4 3,5 -2,0 99 0,8 916 2,2 8,9 --- 2,9
25.01.2021 2,6 1,6 -2,4 -2,0 0,6 -6,6 99 1,3 707 1,2 5,1 --- 2,7
24.01.2021 3,1 2,3 0,4 0,5 1,7 -0,8 99 5,8 464 1,9 6,2 --- 0,6
23.01.2021 3,4 2,7 1,3 1,5 3,2 -0,6 99 0,5 395 1,1 6,6 --- ---
22.01.2021 3,8 3,9 4,2 4,6 9,6 -0,5 96 5,1 543 3,0 17,7 --- 0,7
21.01.2021 3,0 3,0 6,9 7,6 10,0 4,5 75 4,7 564 4,6 15,5 --- 1,7
20.01.2021 2,4 2,0 3,7 4,5 8,1 1,4 76 0,0 1082 3,4 11,0 --- 3,6
19.01.2021 2,1 1,5 1,9 2,1 3,4 0,6 98 3,1 237 4,3 13,1 --- ---
18.01.2021 1,8 1,0 1,1 1,6 2,8 -1,6 98 0,3 578 2,6 9,5 --- 1,6
17.01.2021 1,7 0,7 -1,7 -1,8 0,3 -3,1 98 0,6 519 1,3 5,1 --- 0,3
16.01.2021 1,9 0,9 -2,0 -2,0 -0,6 -3,0 80 0,0 473 2,1 5,9 --- ---
15.01.2021 2,1 1,2 -0,9 -0,9 0,3 -3,2 96 0,0 411 1,8 5,7 --- ---
14.01.2021 2,2 1,3 -0,1 0,1 2,5 -1,1 89 0,8 572 2,4 7,7 --- 1,0
13.01.2021 2,3 1,2 0,1 0,7 3,9 -2,3 93 0,4 1108 3,1 10,2 --- 3,5
12.01.2021 2,4 1,4 0,4 0,7 2,6 -1,0 99 1,9 416 3,7 10,7 --- 0,3
11.01.2021 2,6 1,5 -2,0 -1,9 -0,1 -6,0 93 0,0 981 2,5 9,6 --- 4,3
10.01.2021 2,9 2,0 -1,0 -0,9 1,8 -5,4 95 0,0 739 0,6 5,1 --- 3,1
09.01.2021 2,9 2,1 -0,8 -0,8 1,1 -4,1 97 0,0 450 1,2 5,4 --- 0,5
08.01.2021 3,0 2,2 0,1 0,2 1,3 -1,7 100 4,0 686 1,6 5,5 --- 2,5
07.01.2021 3,1 2,2 0,1 0,2 1,0 -0,5 98 0,2 345 1,9 5,4 --- 0,1
06.01.2021 3,2 2,4 1,0 1,0 1,8 0,1 99 0,1 232 1,7 6,7 --- ---
05.01.2021 3,2 2,3 0,5 0,4 0,9 0,0 100 0,5 149 1,9 6,6 --- ---
04.01.2021 3,4 2,3 0,1 0,1 0,4 -0,3 100 0,7 109 1,9 5,1 --- ---
03.01.2021 3,7 2,7 0,7 0,7 1,4 -0,3 96 0,1 148 2,2 8,6 --- ---
02.01.2021 3,9 3,1 1,1 1,1 2,8 0,2 97 0,0 488 1,0 5,2 --- 0,8
01.01.2021 3,9 3,1 0,7 0,7 1,6 0,0 100 4,4 232 1,0 5,1 --- ---

Mittelwerte (Temperaturen, Strahlung, rel. Feuchte, Wind), Summe (Regen) für 2021
4,6 4,2 2,8 3,2 87 237 2.415 2,0

Landesbetrieb Landwirtschaft Hessen 2009

      Werte bis 5 Uhr SommerzeitCSV-Datei: Wasenberg21.csvDiagramm: Wasenberg